createdAt,value
2023-03-29T00:00:34.288Z,58.60
2023-03-29T00:03:04.120Z,58.85
2023-03-29T00:05:34.866Z,59.16
2023-03-29T00:08:04.396Z,59.69
2023-03-29T00:10:33.968Z,60.42
2023-03-29T00:13:03.087Z,61.18
2023-03-29T00:15:31.351Z,62.28
2023-03-29T00:17:59.422Z,63.29
2023-03-29T00:20:28.753Z,64.42
2023-03-29T00:22:56.846Z,65.95
2023-03-29T00:25:26.345Z,67.33
2023-03-29T00:27:54.256Z,68.21
2023-03-29T00:30:22.233Z,69.30
2023-03-29T00:32:51.313Z,70.42
2023-03-29T00:35:20.027Z,71.43
2023-03-29T00:37:50.983Z,71.80
2023-03-29T00:40:19.151Z,73.73
2023-03-29T00:42:48.342Z,73.41
2023-03-29T00:45:20.590Z,74.60
2023-03-29T00:47:52.931Z,75.81
2023-03-29T00:50:25.905Z,75.98
2023-03-29T00:53:00.877Z,76.31
2023-03-29T00:55:33.548Z,76.71
2023-03-29T00:58:07.424Z,77.38
2023-03-29T01:00:41.782Z,77.95
2023-03-29T01:03:15.246Z,77.39
2023-03-29T01:05:49.883Z,76.37
2023-03-29T01:08:25.722Z,77.58
2023-03-29T01:10:59.919Z,76.32
2023-03-29T01:13:38.767Z,76.79
2023-03-29T01:16:09.411Z,76.53
2023-03-29T01:18:37.596Z,75.60
2023-03-29T01:21:21.289Z,76.35
2023-03-29T01:24:32.253Z,77.67
2023-03-29T01:27:11.348Z,77.26
2023-03-29T01:29:47.477Z,77.32
2023-03-29T01:32:22.268Z,76.66
2023-03-29T01:34:58.686Z,77.22
2023-03-29T01:37:34.169Z,77.84
2023-03-29T01:40:03.166Z,77.10
2023-03-29T01:42:43.436Z,77.92
2023-03-29T01:45:23.840Z,77.10
2023-03-29T01:48:08.960Z,77.55
2023-03-29T01:50:44.296Z,78.37
2023-03-29T01:53:19.065Z,78.19
2023-03-29T01:55:53.658Z,77.38
2023-03-29T01:58:28.110Z,76.79
2023-03-29T02:00:56.334Z,77.12
2023-03-29T02:03:31.815Z,77.46
2023-03-29T02:06:03.757Z,78.38
2023-03-29T02:08:32.038Z,77.56
2023-03-29T02:11:00.100Z,77.54
2023-03-29T02:13:28.405Z,78.26
2023-03-29T02:15:56.712Z,77.30
2023-03-29T02:18:28.857Z,76.85
2023-03-29T02:20:59.316Z,76.62
2023-03-29T02:23:34.965Z,76.55
2023-03-29T02:26:06.706Z,75.64
2023-03-29T02:28:34.836Z,75.93
2023-03-29T02:31:13.035Z,75.13
2023-03-29T02:33:53.112Z,75.07
2023-03-29T02:36:27.467Z,75.68
2023-03-29T02:38:57.245Z,75.95
2023-03-29T02:41:27.657Z,75.56
2023-03-29T02:43:58.482Z,75.55
2023-03-29T02:46:27.796Z,76.84
2023-03-29T02:48:59.891Z,76.02
2023-03-29T02:51:33.593Z,76.92
2023-03-29T02:54:08.217Z,76.44
2023-03-29T02:56:44.784Z,76.84
2023-03-29T02:59:15.393Z,77.05
2023-03-29T03:01:43.659Z,77.03
2023-03-29T03:04:13.525Z,76.74
2023-03-29T03:06:42.453Z,76.12
2023-03-29T03:09:10.502Z,77.58
2023-03-29T03:11:38.652Z,77.77
2023-03-29T03:14:07.541Z,77.42
2023-03-29T03:16:35.662Z,77.62
2023-03-29T03:19:04.654Z,78.24
2023-03-29T03:21:35.203Z,77.77
2023-03-29T03:24:03.297Z,77.97
2023-03-29T03:26:31.225Z,78.72
2023-03-29T03:28:59.110Z,78.17
2023-03-29T03:31:28.402Z,77.43
2023-03-29T03:33:56.696Z,77.87
2023-03-29T03:36:26.104Z,78.29
2023-03-29T03:38:55.375Z,78.90
2023-03-29T03:41:23.234Z,78.91
2023-03-29T03:43:51.133Z,79.34
2023-03-29T03:46:19.152Z,80.12
2023-03-29T03:48:47.992Z,79.99
2023-03-29T03:51:15.945Z,80.56
2023-03-29T03:53:44.110Z,80.87
2023-03-29T03:56:15.206Z,79.81
2023-03-29T03:58:43.314Z,80.39
2023-03-29T04:01:11.955Z,80.55
2023-03-29T04:03:40.361Z,79.95
2023-03-29T04:06:11.177Z,79.81
2023-03-29T04:08:39.092Z,79.53
2023-03-29T04:11:07.719Z,79.49
2023-03-29T04:13:37.223Z,79.30
2023-03-29T04:16:05.587Z,78.68
2023-03-29T04:18:33.746Z,78.79
2023-03-29T04:21:02.612Z,79.57
2023-03-29T04:23:30.873Z,79.52
2023-03-29T04:25:59.349Z,78.72
2023-03-29T04:28:27.276Z,78.56
2023-03-29T04:30:56.838Z,78.34
2023-03-29T04:33:24.793Z,78.28
2023-03-29T04:35:52.791Z,76.78
2023-03-29T04:38:24.534Z,77.93
2023-03-29T04:40:52.466Z,77.12
2023-03-29T04:43:20.345Z,77.16
2023-03-29T04:45:48.231Z,77.36
2023-03-29T04:48:17.498Z,77.24
2023-03-29T04:50:47.751Z,78.13
2023-03-29T04:53:15.631Z,77.64
2023-03-29T04:55:43.556Z,78.14
2023-03-29T04:58:11.656Z,77.53
2023-03-29T05:00:39.924Z,77.65
2023-03-29T05:03:08.109Z,77.74
2023-03-29T05:05:37.488Z,78.10
2023-03-29T05:08:05.546Z,77.73
2023-03-29T05:10:33.423Z,77.84
2023-03-29T05:13:01.337Z,77.17
2023-03-29T05:15:29.230Z,77.81
2023-03-29T05:17:57.360Z,77.98
2023-03-29T05:20:25.385Z,77.55
2023-03-29T05:22:54.825Z,76.92
2023-03-29T05:25:23.779Z,77.02
2023-03-29T05:27:52.171Z,76.75
2023-03-29T05:30:20.721Z,76.81
2023-03-29T05:32:49.190Z,76.17
2023-03-29T05:35:17.444Z,76.89
2023-03-29T05:37:47.171Z,76.77
2023-03-29T05:40:16.494Z,76.50
2023-03-29T05:42:44.359Z,76.38
2023-03-29T05:45:12.659Z,76.41
2023-03-29T05:47:40.686Z,76.27
2023-03-29T05:50:10.300Z,76.66
2023-03-29T05:52:38.681Z,76.09
2023-03-29T05:55:07.960Z,75.96
2023-03-29T05:57:38.776Z,76.32
2023-03-29T06:00:17.762Z,75.75
2023-03-29T06:02:45.738Z,75.29
2023-03-29T06:05:13.922Z,74.98
2023-03-29T06:07:42.380Z,75.23
2023-03-29T06:10:11.404Z,75.40
2023-03-29T06:12:40.805Z,75.14
2023-03-29T06:15:10.206Z,74.65
2023-03-29T06:17:39.527Z,74.53
2023-03-29T06:20:11.042Z,74.54
2023-03-29T06:22:39.174Z,74.89
2023-03-29T06:25:09.267Z,74.37
2023-03-29T06:27:37.217Z,74.48
2023-03-29T06:30:08.128Z,75.05
2023-03-29T06:32:36.717Z,74.77
2023-03-29T06:35:05.384Z,74.58
2023-03-29T06:37:33.796Z,73.84
2023-03-29T06:40:03.102Z,73.57
2023-03-29T06:42:30.995Z,73.29
2023-03-29T06:44:59.180Z,73.16
2023-03-29T06:47:30.986Z,73.45
2023-03-29T06:49:58.906Z,73.47
2023-03-29T06:52:27.052Z,72.74
2023-03-29T06:54:55.297Z,72.68
2023-03-29T06:57:23.735Z,72.16
2023-03-29T06:59:51.680Z,71.34
2023-03-29T07:02:19.666Z,70.43
2023-03-29T07:04:48.918Z,71.66
2023-03-29T07:07:20.877Z,70.68
2023-03-29T07:09:53.928Z,70.85
2023-03-29T07:12:23.028Z,70.28
2023-03-29T07:14:50.927Z,69.57
2023-03-29T07:17:18.842Z,69.41
2023-03-29T07:19:48.903Z,69.11
2023-03-29T07:22:16.772Z,69.07
2023-03-29T07:24:44.953Z,68.19
2023-03-29T07:27:12.864Z,67.82
2023-03-29T07:29:40.847Z,68.24
2023-03-29T07:32:08.675Z,66.80
2023-03-29T07:34:36.979Z,68.08
2023-03-29T07:37:07.126Z,67.43
2023-03-29T07:39:35.426Z,66.75
2023-03-29T07:42:03.544Z,66.96
2023-03-29T07:44:33.294Z,66.82
2023-03-29T07:47:04.433Z,66.65
2023-03-29T07:49:32.744Z,67.26
2023-03-29T07:52:01.259Z,66.69
2023-03-29T07:54:32.479Z,65.89
2023-03-29T07:57:00.491Z,66.42
2023-03-29T07:59:28.454Z,66.37
2023-03-29T08:01:56.638Z,66.43
2023-03-29T08:04:24.818Z,66.44
2023-03-29T08:06:52.895Z,66.57
2023-03-29T08:09:21.138Z,67.73
2023-03-29T08:11:50.747Z,66.71
2023-03-29T08:14:18.607Z,67.03
2023-03-29T08:16:46.553Z,66.41
2023-03-29T08:19:14.629Z,66.48
2023-03-29T08:21:42.646Z,65.67
2023-03-29T08:24:10.904Z,66.49
2023-03-29T08:26:38.942Z,66.38
2023-03-29T08:29:08.926Z,66.87
2023-03-29T08:31:37.037Z,65.97
2023-03-29T08:34:05.382Z,66.05
2023-03-29T08:36:33.493Z,66.40
2023-03-29T08:39:03.059Z,66.35
2023-03-29T08:41:46.559Z,66.15
2023-03-29T08:44:32.601Z,66.09
2023-03-29T08:47:15.136Z,67.04
2023-03-29T08:49:49.397Z,66.69
2023-03-29T08:52:24.506Z,66.55
2023-03-29T08:54:57.850Z,67.38
2023-03-29T08:57:30.514Z,66.79
2023-03-29T09:00:04.913Z,67.21
2023-03-29T09:02:36.683Z,67.18
2023-03-29T09:05:19.157Z,66.63
2023-03-29T09:07:47.402Z,67.11
2023-03-29T09:10:18.954Z,66.79
2023-03-29T09:13:04.202Z,67.11
2023-03-29T09:15:45.444Z,65.91
2023-03-29T09:18:23.436Z,64.75
2023-03-29T09:21:00.506Z,65.02
2023-03-29T09:23:58.502Z,64.12
2023-03-29T09:26:36.977Z,64.30
2023-03-29T09:29:23.796Z,63.81
2023-03-29T09:31:57.310Z,62.71
2023-03-29T09:34:35.201Z,62.42
2023-03-29T09:37:08.275Z,62.84
2023-03-29T09:39:39.367Z,61.83
2023-03-29T09:42:11.845Z,62.00
2023-03-29T09:44:46.917Z,61.09
2023-03-29T09:47:23.456Z,61.45
2023-03-29T09:49:58.632Z,61.29
2023-03-29T09:52:26.623Z,60.17
2023-03-29T09:54:54.744Z,57.95
2023-03-29T09:57:22.797Z,59.17
2023-03-29T09:59:52.910Z,59.35
2023-03-29T10:02:22.604Z,59.31
2023-03-29T10:04:58.732Z,60.15
2023-03-29T10:07:38.001Z,59.19
2023-03-29T10:10:09.541Z,59.22
2023-03-29T10:12:38.026Z,58.42
2023-03-29T10:15:11.723Z,58.29
2023-03-29T10:17:46.345Z,58.06
2023-03-29T10:20:18.373Z,57.91
2023-03-29T10:22:55.776Z,57.76
2023-03-29T10:25:28.241Z,58.57
2023-03-29T10:28:05.269Z,58.59
2023-03-29T10:30:38.590Z,58.71
2023-03-29T10:33:18.198Z,59.76
2023-03-29T10:35:49.476Z,58.77
2023-03-29T10:38:20.794Z,58.68
2023-03-29T10:40:50.852Z,58.80
2023-03-29T10:43:24.641Z,58.84
2023-03-29T10:45:55.224Z,58.26
2023-03-29T10:48:30.912Z,58.23
2023-03-29T10:51:01.532Z,58.30
2023-03-29T10:53:33.514Z,58.11
2023-03-29T10:56:17.365Z,58.15
2023-03-29T10:59:14.459Z,57.91
2023-03-29T11:01:53.889Z,57.24
2023-03-29T11:04:35.634Z,57.53
2023-03-29T11:07:29.176Z,58.01
2023-03-29T11:10:15.751Z,56.99
2023-03-29T11:12:53.619Z,57.13
2023-03-29T11:15:47.598Z,56.18
2023-03-29T11:18:45.991Z,56.86
2023-03-29T11:21:29.410Z,57.32
2023-03-29T11:24:22.040Z,56.87
2023-03-29T11:27:05.687Z,56.21
2023-03-29T11:29:44.523Z,56.74
2023-03-29T11:32:20.145Z,54.99
2023-03-29T11:35:06.478Z,56.47
2023-03-29T11:37:45.995Z,55.80
2023-03-29T11:40:32.437Z,56.70
2023-03-29T11:43:07.328Z,57.56
2023-03-29T11:45:43.463Z,56.89
2023-03-29T11:48:19.940Z,56.18
2023-03-29T11:50:56.096Z,57.07
2023-03-29T11:53:32.207Z,55.14
2023-03-29T11:56:10.188Z,55.45
2023-03-29T11:58:44.865Z,55.86
2023-03-29T12:01:18.748Z,55.12
2023-03-29T12:03:52.607Z,54.95
2023-03-29T12:06:27.607Z,54.76
2023-03-29T12:09:03.968Z,54.01
2023-03-29T12:11:39.021Z,54.11
2023-03-29T12:14:16.357Z,55.36
2023-03-29T12:16:50.622Z,55.17
2023-03-29T12:19:24.127Z,54.82
2023-03-29T12:21:56.527Z,55.34
2023-03-29T12:24:31.065Z,53.81
2023-03-29T12:27:22.734Z,53.28
2023-03-29T12:30:23.413Z,53.63
2023-03-29T12:33:16.441Z,53.08
2023-03-29T12:35:59.518Z,54.20
2023-03-29T12:38:31.708Z,53.45
2023-03-29T12:41:03.870Z,54.45
2023-03-29T12:43:35.091Z,52.82
2023-03-29T12:46:09.406Z,53.57
2023-03-29T12:48:41.708Z,53.21
2023-03-29T12:51:15.330Z,52.34
2023-03-29T12:53:47.209Z,52.44
2023-03-29T12:56:18.878Z,52.34
2023-03-29T12:59:17.985Z,53.81
2023-03-29T13:02:02.479Z,53.50
2023-03-29T13:04:49.298Z,52.79
2023-03-29T13:07:30.489Z,51.59
2023-03-29T13:10:01.400Z,52.96
2023-03-29T13:12:40.563Z,51.79
2023-03-29T13:15:24.445Z,51.47
2023-03-29T13:18:06.434Z,51.74
2023-03-29T13:20:47.060Z,51.32
2023-03-29T13:23:30.498Z,50.52
2023-03-29T13:26:22.091Z,50.16
2023-03-29T13:29:22.507Z,50.57
2023-03-29T13:32:00.750Z,51.33
2023-03-29T13:34:42.059Z,50.98
2023-03-29T13:37:28.501Z,51.49
2023-03-29T13:39:57.418Z,50.30
2023-03-29T13:42:40.049Z,50.05
2023-03-29T13:45:16.653Z,50.64
2023-03-29T13:47:54.862Z,51.24
2023-03-29T13:50:38.124Z,51.21
2023-03-29T13:53:13.776Z,51.26
2023-03-29T13:55:49.617Z,50.50
2023-03-29T13:58:33.444Z,49.95
2023-03-29T14:01:12.515Z,49.41
2023-03-29T14:03:45.755Z,49.03
2023-03-29T14:06:18.782Z,49.87
2023-03-29T14:08:49.386Z,48.83
2023-03-29T14:11:25.358Z,48.57
2023-03-29T14:13:55.420Z,49.51
2023-03-29T14:16:29.231Z,48.76
2023-03-29T14:18:59.912Z,48.00
2023-03-29T14:21:28.119Z,48.24
2023-03-29T14:23:58.628Z,48.27
2023-03-29T14:26:31.900Z,47.90
2023-03-29T14:29:02.286Z,48.50
2023-03-29T14:31:34.301Z,49.02
2023-03-29T14:34:04.778Z,49.59
2023-03-29T14:36:34.896Z,49.26
2023-03-29T14:39:06.557Z,49.32
2023-03-29T14:41:38.028Z,50.31
2023-03-29T14:44:08.880Z,50.64
2023-03-29T14:46:38.723Z,49.70
2023-03-29T14:49:07.345Z,50.87
2023-03-29T14:51:36.953Z,50.68
2023-03-29T14:54:06.625Z,51.06
2023-03-29T14:56:35.481Z,51.27
2023-03-29T14:59:05.412Z,51.04
2023-03-29T15:01:33.404Z,51.74
2023-03-29T15:04:09.056Z,51.04
2023-03-29T15:06:42.363Z,51.19
2023-03-29T15:09:19.630Z,49.50
2023-03-29T15:11:55.931Z,49.44
2023-03-29T15:14:27.399Z,49.95
2023-03-29T15:17:03.136Z,50.36
2023-03-29T15:19:33.796Z,51.60
2023-03-29T15:22:06.011Z,50.58
2023-03-29T15:24:35.050Z,49.73
2023-03-29T15:27:05.519Z,50.50
2023-03-29T15:29:41.818Z,51.08
2023-03-29T15:32:11.672Z,52.12
2023-03-29T15:34:41.178Z,51.04
2023-03-29T15:37:13.678Z,50.35
2023-03-29T15:39:45.301Z,50.64
2023-03-29T15:42:13.697Z,50.44
2023-03-29T15:44:41.585Z,52.13
2023-03-29T15:47:12.093Z,49.98
2023-03-29T15:49:41.911Z,50.00
2023-03-29T15:52:09.856Z,50.19
2023-03-29T15:54:37.724Z,50.07
2023-03-29T15:57:09.121Z,51.19
2023-03-29T15:59:37.483Z,50.83
2023-03-29T16:02:06.330Z,51.04
2023-03-29T16:04:36.193Z,51.68
2023-03-29T16:07:12.121Z,53.10
2023-03-29T16:09:40.276Z,51.97
2023-03-29T16:12:08.479Z,53.09
2023-03-29T16:14:36.762Z,52.76
2023-03-29T16:17:05.985Z,53.12
2023-03-29T16:19:34.980Z,53.15
2023-03-29T16:22:07.392Z,53.37
2023-03-29T16:24:36.787Z,54.74
2023-03-29T16:27:05.447Z,55.04
2023-03-29T16:29:33.425Z,55.09
2023-03-29T16:32:03.373Z,55.23
2023-03-29T16:34:32.586Z,55.63
2023-03-29T16:37:00.989Z,55.80
2023-03-29T16:39:30.400Z,56.20
2023-03-29T16:41:58.472Z,56.26
2023-03-29T16:44:27.862Z,56.78
2023-03-29T16:46:58.007Z,57.00
2023-03-29T16:49:26.028Z,57.06
2023-03-29T16:51:54.014Z,56.82
2023-03-29T16:54:21.941Z,56.83
2023-03-29T16:56:51.242Z,57.17
2023-03-29T16:59:19.379Z,57.32
2023-03-29T17:01:47.380Z,57.21
2023-03-29T17:04:15.565Z,58.09
2023-03-29T17:06:43.552Z,58.07
2023-03-29T17:09:11.518Z,57.84
2023-03-29T17:11:39.537Z,58.37
2023-03-29T17:14:11.121Z,58.06
2023-03-29T17:16:39.113Z,58.12
2023-03-29T17:19:07.037Z,59.11
2023-03-29T17:21:34.946Z,59.35
2023-03-29T17:24:02.855Z,59.03
2023-03-29T17:26:30.891Z,59.21
2023-03-29T17:28:58.806Z,59.35
2023-03-29T17:31:28.298Z,60.14
2023-03-29T17:33:56.227Z,60.04
2023-03-29T17:36:25.413Z,60.35
2023-03-29T17:38:54.708Z,61.44
2023-03-29T17:41:22.938Z,61.83
2023-03-29T17:43:51.976Z,61.94
2023-03-29T17:46:22.841Z,62.18
2023-03-29T17:48:52.344Z,61.92
2023-03-29T17:51:21.333Z,62.01
2023-03-29T17:53:49.500Z,62.10
2023-03-29T17:56:17.614Z,63.01
2023-03-29T17:58:45.605Z,62.28
2023-03-29T18:01:14.718Z,62.18
2023-03-29T18:03:43.518Z,63.11
2023-03-29T18:06:13.230Z,62.54
2023-03-29T18:08:41.669Z,62.33
2023-03-29T18:11:12.114Z,62.18
2023-03-29T18:13:41.109Z,62.16
2023-03-29T18:16:10.178Z,62.49
2023-03-29T18:18:38.868Z,63.33
2023-03-29T18:21:10.102Z,62.96
2023-03-29T18:23:42.223Z,63.38
2023-03-29T18:26:10.839Z,63.37
2023-03-29T18:28:38.786Z,63.45
2023-03-29T18:31:06.958Z,62.98
2023-03-29T18:33:36.205Z,62.89
2023-03-29T18:36:08.395Z,61.13
2023-03-29T18:38:44.306Z,61.51
2023-03-29T18:41:14.801Z,61.36
2023-03-29T18:43:44.159Z,61.34
2023-03-29T18:46:12.120Z,60.55
2023-03-29T18:48:41.016Z,61.34
2023-03-29T18:51:11.401Z,60.82
2023-03-29T18:53:42.056Z,60.64
2023-03-29T18:56:09.975Z,60.31
2023-03-29T18:58:38.039Z,60.10
2023-03-29T19:01:07.482Z,59.71
2023-03-29T19:03:36.454Z,60.08
2023-03-29T19:06:05.870Z,60.23
2023-03-29T19:08:36.662Z,61.00
2023-03-29T19:11:08.408Z,61.65
2023-03-29T19:13:37.492Z,63.04
2023-03-29T19:16:06.442Z,62.33
2023-03-29T19:18:34.936Z,63.24
2023-03-29T19:21:02.948Z,63.63
2023-03-29T19:23:31.430Z,63.90
2023-03-29T19:26:02.534Z,65.14
2023-03-29T19:28:33.748Z,65.49
2023-03-29T19:31:03.470Z,66.15
2023-03-29T19:33:31.743Z,67.33
2023-03-29T19:36:02.786Z,67.64
2023-03-29T19:38:30.901Z,66.98
2023-03-29T19:40:58.861Z,67.48
2023-03-29T19:43:27.111Z,67.61
2023-03-29T19:45:56.533Z,67.49
2023-03-29T19:48:24.798Z,68.50
2023-03-29T19:50:52.857Z,68.13
2023-03-29T19:53:21.165Z,67.75
2023-03-29T19:55:49.773Z,66.95
2023-03-29T19:58:17.733Z,67.50
2023-03-29T20:00:46.673Z,67.90
2023-03-29T20:03:16.098Z,67.31
2023-03-29T20:05:44.470Z,66.37
2023-03-29T20:08:12.387Z,66.96
2023-03-29T20:10:40.368Z,66.82
2023-03-29T20:13:08.255Z,67.02
2023-03-29T20:15:36.302Z,66.71
2023-03-29T20:18:04.234Z,67.13
2023-03-29T20:20:35.705Z,67.53
2023-03-29T20:23:05.187Z,67.48
2023-03-29T20:25:33.705Z,67.43
2023-03-29T20:28:01.611Z,67.41
2023-03-29T20:30:29.738Z,67.58
2023-03-29T20:32:57.717Z,67.70
2023-03-29T20:35:26.022Z,67.80
2023-03-29T20:37:55.489Z,68.53
2023-03-29T20:40:23.346Z,68.46
2023-03-29T20:42:51.288Z,67.98
2023-03-29T20:45:22.224Z,68.63
2023-03-29T20:47:57.565Z,67.87
2023-03-29T20:50:29.544Z,67.60
2023-03-29T20:53:03.739Z,68.17
2023-03-29T20:55:33.228Z,68.28
2023-03-29T20:58:02.117Z,68.84
2023-03-29T21:00:32.844Z,68.60
2023-03-29T21:03:03.689Z,69.21
2023-03-29T21:05:33.869Z,69.79
2023-03-29T21:08:04.246Z,69.36
2023-03-29T21:10:32.805Z,69.33
2023-03-29T21:13:02.599Z,69.74
2023-03-29T21:15:31.922Z,69.94
2023-03-29T21:17:59.985Z,69.10
2023-03-29T21:20:28.555Z,68.68
2023-03-29T21:22:56.501Z,68.77
2023-03-29T21:25:25.797Z,69.34
2023-03-29T21:27:53.699Z,68.24
2023-03-29T21:30:21.701Z,67.73
2023-03-29T21:32:49.695Z,68.07
2023-03-29T21:35:17.802Z,67.97
2023-03-29T21:37:46.239Z,67.42
2023-03-29T21:40:15.210Z,67.16
2023-03-29T21:42:44.430Z,67.44
2023-03-29T21:45:12.696Z,67.46
2023-03-29T21:47:40.662Z,66.56
2023-03-29T21:50:09.402Z,66.37
2023-03-29T21:52:37.806Z,65.78
2023-03-29T21:55:06.143Z,65.59
2023-03-29T21:57:34.046Z,66.06
2023-03-29T22:00:05.240Z,66.06
2023-03-29T22:02:33.263Z,65.36
2023-03-29T22:05:01.228Z,64.98
2023-03-29T22:07:29.169Z,65.45
2023-03-29T22:09:58.660Z,65.07
2023-03-29T22:12:27.022Z,65.12
2023-03-29T22:14:54.894Z,64.82
2023-03-29T22:17:26.701Z,64.83
2023-03-29T22:19:56.671Z,64.58
2023-03-29T22:22:25.108Z,64.08
2023-03-29T22:24:53.891Z,63.63
2023-03-29T22:27:22.453Z,63.69
2023-03-29T22:29:50.334Z,63.67
2023-03-29T22:32:18.362Z,63.01
2023-03-29T22:34:47.667Z,63.27
2023-03-29T22:37:15.548Z,63.33
2023-03-29T22:39:43.366Z,63.11
2023-03-29T22:42:11.378Z,62.83
2023-03-29T22:44:39.228Z,63.26
2023-03-29T22:47:07.137Z,63.27
2023-03-29T22:49:35.008Z,63.02
2023-03-29T22:52:04.523Z,63.30
2023-03-29T22:54:32.434Z,62.97
2023-03-29T22:57:00.399Z,63.26
2023-03-29T22:59:28.409Z,63.77
2023-03-29T23:01:56.423Z,63.89
2023-03-29T23:04:24.460Z,64.30
2023-03-29T23:06:53.145Z,64.52
2023-03-29T23:09:22.665Z,64.05
2023-03-29T23:11:50.574Z,63.86
2023-03-29T23:14:18.982Z,64.40
2023-03-29T23:16:47.210Z,64.63
2023-03-29T23:19:15.198Z,64.47
2023-03-29T23:21:43.024Z,64.77
2023-03-29T23:24:11.001Z,65.07
2023-03-29T23:26:40.205Z,64.80
2023-03-29T23:29:08.458Z,65.09
2023-03-29T23:31:36.397Z,65.11
2023-03-29T23:34:04.309Z,64.86
2023-03-29T23:36:32.224Z,65.19
2023-03-29T23:39:00.243Z,65.53
2023-03-29T23:41:30.567Z,65.71
2023-03-29T23:44:00.320Z,65.41
2023-03-29T23:46:28.251Z,65.73
2023-03-29T23:48:56.738Z,65.70
2023-03-29T23:51:28.821Z,65.65
2023-03-29T23:53:57.258Z,65.54
2023-03-29T23:56:25.112Z,65.67
2023-03-29T23:58:52.982Z,65.81
